Foxy 3 — WDH4123 — position and weather

sailwx.info

Track history (hours):
 
Tides and Currents Weather Stations Pressure Air Temp Water Temp Dewpoint Dewpoint Depression Visibility Wind Speed Wind Dir Waves Ship Positions

Foxy 3

Owner: Fox Marine Corporation, Easton, PA. More information available from US FCC via Universal Licensing System and Coast Guard Vessel Documentation Center.

Last reported at 2017-Dec-11 17:01 UTC. Time now 2017-Dec-12 04:47 UTC.
Position N 40°41' W 074°01'.

MMSI: 367614410.

Date/timePositionNaut miles runAvg speedWind from/ knotsBaromVisibWave heightAir tempDewpointWater temp
2017-Dec-11 17:01N 40°41' W 074°01'2 4.9
2017-Dec-11 16:31N 40°41' W 074°05'0 0.1
2017-Dec-11 16:01N 40°41' W 074°05'0 0.1
2017-Dec-11 15:30N 40°41' W 074°05'0 0.1
2017-Dec-11 15:00N 40°41' W 074°05'0 0.1
2017-Dec-11 14:31N 40°41' W 074°04'0 0.0
2017-Dec-11 14:01N 40°41' W 074°04'0 0.1
2017-Dec-11 13:31N 40°41' W 074°05'0 0.0
2017-Dec-11 13:01N 40°41' W 074°05'0 0.2
2017-Dec-11 12:30N 40°41' W 074°04'0 0.8
2017-Dec-11 12:01N 40°41' W 074°04'3 6.2
2017-Dec-11 11:28N 40°39' W 074°07'0 0.0
2017-Dec-10 00:27N 40°39' W 074°07'3 7.3
2017-Dec-10 00:01N 40°40' W 074°03'1 2.4
2017-Dec-09 23:31N 40°39' W 074°03'2 3.7
2017-Dec-09 23:00N 40°37' W 074°03'2 3.4
2017-Dec-09 22:30N 40°35' W 074°02'2 3.3
2017-Dec-09 22:00N 40°34' W 074°00'5 3.5
2017-Dec-09 20:41N 40°33' W 073°55'6 1.2
2017-Dec-09 15:25N 40°35' W 073°47'4 8.2
2017-Dec-09 14:59N 40°34' W 073°51'4 7.8
2017-Dec-09 14:30N 40°32' W 073°56'3 6.0
2017-Dec-09 13:59N 40°34' W 073°59'3 5.6
2017-Dec-09 13:30N 40°36' W 074°02'4 8.1
2017-Dec-09 13:00N 40°39' W 074°05'2 3.2
2017-Dec-09 12:30N 40°39' W 074°07'0 0.0
2017-Dec-09 12:00N 40°39' W 074°07'0 0.0
2017-Dec-07 19:52N 40°39' W 074°07'2 6.1
2017-Dec-07 19:29N 40°39' W 074°04'2 5.3
2017-Dec-07 19:00N 40°40' W 074°01'2 3.4
2017-Dec-07 18:30N 40°39' W 074°03'3 6.0
2017-Dec-07 18:00N 40°39' W 074°07'2 3.8
2017-Dec-07 17:30N 40°38' W 074°10'3 5.8
2017-Dec-07 16:58N 40°39' W 074°06'3 6.5
2017-Dec-07 16:30N 40°40' W 074°02'1 1.3
2017-Dec-07 16:01N 40°40' W 074°01'0 0.1
2017-Dec-07 15:30N 40°40' W 074°01'3 5.5
2017-Dec-07 15:00N 40°39' W 074°05'3 4.9
2017-Dec-07 14:29N 40°39' W 074°08'1 2.7
2017-Dec-07 13:59N 40°38' W 074°10'3 5.9
2017-Dec-07 13:30N 40°39' W 074°06'4 7.6
2017-Dec-07 13:00N 40°40' W 074°01'2 3.6
2017-Dec-07 12:30N 40°39' W 074°03'2 3.9
2017-Dec-07 12:00N 40°39' W 074°06'2 3.3
2017-Dec-07 11:30N 40°39' W 074°08'1 2.4
2017-Dec-07 10:59N 40°38' W 074°10'1 2.1
2017-Dec-07 10:30N 40°38' W 074°08'1 0.1
2017-Dec-06 21:14N 40°39' W 074°07'1 2.1
2017-Dec-06 20:34N 40°38' W 074°09'  
Track history (hours):
 
Tides and Currents Weather Stations Pressure Air Temp Water Temp Dewpoint Dewpoint Depression Visibility Wind Speed Wind Dir Waves Ship Positions

Foxy 3

Owner: Fox Marine Corporation, Easton, PA. More information available from US FCC via Universal Licensing System and Coast Guard Vessel Documentation Center.

Last reported at 2017-Dec-11 17:01 UTC. Time now 2017-Dec-12 04:47 UTC.
Position N 40°41' W 074°01'.

MMSI: 367614410.

Date/timePositionNaut miles runAvg speedWind from/ knotsBaromVisibWave heightAir tempDewpointWater temp
2017-Dec-11 17:01N 40°41' W 074°01'2 4.9
2017-Dec-11 16:31N 40°41' W 074°05'0 0.1
2017-Dec-11 16:01N 40°41' W 074°05'0 0.1
2017-Dec-11 15:30N 40°41' W 074°05'0 0.1
2017-Dec-11 15:00N 40°41' W 074°05'0 0.1
2017-Dec-11 14:31N 40°41' W 074°04'0 0.0
2017-Dec-11 14:01N 40°41' W 074°04'0 0.1
2017-Dec-11 13:31N 40°41' W 074°05'0 0.0
2017-Dec-11 13:01N 40°41' W 074°05'0 0.2
2017-Dec-11 12:30N 40°41' W 074°04'0 0.8
2017-Dec-11 12:01N 40°41' W 074°04'3 6.2
2017-Dec-11 11:28N 40°39' W 074°07'0 0.0
2017-Dec-10 00:27N 40°39' W 074°07'3 7.3
2017-Dec-10 00:01N 40°40' W 074°03'1 2.4
2017-Dec-09 23:31N 40°39' W 074°03'2 3.7
2017-Dec-09 23:00N 40°37' W 074°03'2 3.4
2017-Dec-09 22:30N 40°35' W 074°02'2 3.3
2017-Dec-09 22:00N 40°34' W 074°00'5 3.5
2017-Dec-09 20:41N 40°33' W 073°55'6 1.2
2017-Dec-09 15:25N 40°35' W 073°47'4 8.2
2017-Dec-09 14:59N 40°34' W 073°51'4 7.8
2017-Dec-09 14:30N 40°32' W 073°56'3 6.0
2017-Dec-09 13:59N 40°34' W 073°59'3 5.6
2017-Dec-09 13:30N 40°36' W 074°02'4 8.1
2017-Dec-09 13:00N 40°39' W 074°05'2 3.2
2017-Dec-09 12:30N 40°39' W 074°07'0 0.0
2017-Dec-09 12:00N 40°39' W 074°07'0 0.0
2017-Dec-07 19:52N 40°39' W 074°07'2 6.1
2017-Dec-07 19:29N 40°39' W 074°04'2 5.3
2017-Dec-07 19:00N 40°40' W 074°01'2 3.4
2017-Dec-07 18:30N 40°39' W 074°03'3 6.0
2017-Dec-07 18:00N 40°39' W 074°07'2 3.8
2017-Dec-07 17:30N 40°38' W 074°10'3 5.8
2017-Dec-07 16:58N 40°39' W 074°06'3 6.5
2017-Dec-07 16:30N 40°40' W 074°02'1 1.3
2017-Dec-07 16:01N 40°40' W 074°01'0 0.1
2017-Dec-07 15:30N 40°40' W 074°01'3 5.5
2017-Dec-07 15:00N 40°39' W 074°05'3 4.9
2017-Dec-07 14:29N 40°39' W 074°08'1 2.7
2017-Dec-07 13:59N 40°38' W 074°10'3 5.9
2017-Dec-07 13:30N 40°39' W 074°06'4 7.6
2017-Dec-07 13:00N 40°40' W 074°01'2 3.6
2017-Dec-07 12:30N 40°39' W 074°03'2 3.9
2017-Dec-07 12:00N 40°39' W 074°06'2 3.3
2017-Dec-07 11:30N 40°39' W 074°08'1 2.4
2017-Dec-07 10:59N 40°38' W 074°10'1 2.1
2017-Dec-07 10:30N 40°38' W 074°08'1 0.1
2017-Dec-06 21:14N 40°39' W 074°07'1 2.1
2017-Dec-06 20:34N 40°38' W 074°09'  

Dump ship's entire track history